• Join FlightAware (Why Join?)
  • Login
  • US Flag 
09:15AM EDT


 

Airport Tracker/Info


-or-


 

Live Flight TrackerFlight Track Log ✈ N400PU ✈ 06-Apr-2013 ✈ KLAF - KLNK

Flight Track Log - Related Links

Times and Time Zones

All times are in EDT time to prevent confusion due to time zone crossing. See the N400PU flight status page for this flight to view local times or setup timezone preferences in your user account.

Time Position Orientation Groundspeed Altitude Reporting Facility
EDT Latitude Longitude Course Direction KTS MPH feet Rate Location/Type
11:12AM 40.4094 -86.9169 277° West 166 191 1,700  Level Chicago Center
11:13AM 40.4075 -86.8622 93° East 186 214 3,500 2,280 Climbing Chicago Center
11:14AM 40.3761 -86.8092 128° Southeast 214 246 6,000 2,580 Climbing Chicago Center
11:15AM 40.3517 -86.8772 245° Southwest 218 251 8,900 2,820 Climbing Chicago Center
11:16AM 40.3567 -86.9589 275° West 223 257 11,800 2,520 Climbing Chicago Center
11:17AM 40.3617 -87.0456 274° West 235 270 14,100 2,100 Climbing Chicago Center
11:18AM 40.4133 -86.9483 277° West  Level Estimated
11:18AM 40.3675 -87.1503 274° West 281 323 16,200  Level Chicago Center
11:19AM 40.3742 -87.2608 275° West 301 346 18,500 2,160 Climbing Chicago Center
11:20AM 40.3817 -87.3725 275° West 306 352 20,700 1,620 Climbing Chicago Center
11:21AM 40.3892 -87.5064 274° West 330 380 21,900 1,080 Climbing Chicago Center
11:22AM 40.3981 -87.6350 275° West 348 400 23,000 540 Climbing Chicago Center
11:23AM 40.4072 -87.7767 275° West 378 435 23,000 60 Level Chicago Center
11:24AM 40.4150 -87.9239 274° West 399 459 23,200 1,320 Climbing Chicago Center
11:25AM 40.4225 -88.0611 274° West 385 443 25,800 1,320 Climbing Chicago Center
11:26AM 40.4303 -88.1936 274° West 368 423 26,000 60 Climbing Chicago Center
11:28AM 40.4447 -88.4872 274° West 405 466 26,100 720 Climbing Kansas City Center
11:29AM 40.4522 -88.6272 274° West 389 448 28,300 1,980 Climbing Kansas City Center
11:30AM 40.4589 -88.7578 274° West 364 419 30,200 1,800 Climbing Kansas City Center
11:31AM 40.4675 -88.9117 274° West 353 406 32,200 1,560 Climbing Chicago Center
11:32AM 40.4731 -89.0378 273° West 347 399 33,600 1,260 Climbing Chicago Center
11:34AM 40.4789 -89.1656 273° West 350 403 34,900 1,260 Climbing Chicago Center
11:35AM 40.4833 -89.2917 273° West 346 398 36,200 1,140 Climbing Chicago Center
11:36AM 40.4900 -89.4197 274° West 349 402 37,300 840 Climbing Chicago Center
11:37AM 40.4969 -89.5644 274° West 343 395 38,000 300 Climbing Chicago Center
11:38AM 40.5017 -89.6983 273° West 362 417 38,000  Level Chicago Center
11:39AM 40.5075 -89.8356 273° West 373 429 38,000  Level Chicago Center
11:40AM 40.5133 -89.9669 273° West 367 422 38,000  Level Chicago Center
11:41AM 40.5175 -90.0975 272° West 361 415 38,000  Level Chicago Center
11:42AM 40.5231 -90.2456 273° West 361 415 38,000  Level Chicago Center
11:43AM 40.5278 -90.3819 273° West 370 426 38,000  Level Chicago Center
11:44AM 40.5328 -90.5189 273° West 375 432 38,000  Level Chicago Center
11:44AM 40.5347 -90.5728 273° West 374 430 38,000  Level Chicago Center
11:45AM 40.5381 -90.7100 272° West 376 433 38,000  Level Chicago Center
11:46AM 40.5436 -90.8456 273° West 372 428 38,000  Level Chicago Center
11:47AM 40.5467 -90.9806 272° West 370 426 38,000  Level Chicago Center
11:48AM 40.5508 -91.1161 272° West 371 427 38,000  Level Chicago Center
11:49AM 40.5550 -91.2519 272° West 371 427 38,000  Level Chicago Center
11:50AM 40.5589 -91.4136 272° West 371 427 38,000  Level Chicago Center
11:51AM 40.5625 -91.5483 272° West 373 429 38,000  Level Chicago Center
11:52AM 40.5639 -91.6281 271° West 371 427 38,000  Level Kansas City Center
11:53AM 40.5669 -91.7622 272° West 370 426 38,000  Level Kansas City Center
11:54AM 40.5697 -91.8975 272° West 372 428 38,000  Level Kansas City Center
11:55AM 40.5742 -92.0572 272° West 370 426 38,000  Level Kansas City Center
11:56AM 40.5750 -92.1914 271° West 371 427 38,000  Level Kansas City Center
11:57AM 40.5783 -92.3350 272° West 370 426 38,000 -300 Level Kansas City Center
11:58AM 40.5817 -92.4703 272° West 370 426 37,500 -1,020 Descending Kansas City Center
11:59AM 40.5836 -92.6072 271° West 372 428 36,000 -1,440 Descending Kansas City Center
12:00PM 40.5861 -92.7403 271° West 370 426 34,600 -900 Descending Kansas City Center
12:01PM 40.5881 -92.9153 271° West 374 430 34,000 -300 Descending Kansas City Center
12:03PM 40.5897 -93.0517 271° West 383 441 34,000  Level Kansas City Center
12:04PM 40.5925 -93.1942 272° West 391 450 34,000  Level Kansas City Center
12:05PM 40.5939 -93.3694 271° West 400 460 34,000  Level Kansas City Center
12:05PM 40.5928 -93.4872 269° West 406 467 34,000  Level Minneapolis Center
12:06PM 40.5936 -93.6353 270° West 410 472 34,000  Level Minneapolis Center
12:07PM 40.5939 -93.7803 270° West 403 464 34,000  Level Minneapolis Center
12:08PM 40.5953 -93.9231 271° West 396 456 34,000  Level Minneapolis Center
12:09PM 40.6025 -94.0642 274° West 393 452 34,000  Level Minneapolis Center
12:11PM 40.6217 -94.2394 278° West 402 463 34,000 -300 Level Minneapolis Center
12:12PM 40.6356 -94.3864 277° West 405 466 33,500 -1,140 Descending Minneapolis Center
12:13PM 40.6517 -94.5319 278° West 405 466 31,700 -1,560 Descending Minneapolis Center
12:14PM 40.6650 -94.6700 277° West 396 456 30,400 -1,380 Descending Minneapolis Center
12:15PM 40.6792 -94.8092 278° West 386 444 28,900 -1,500 Descending Minneapolis Center
12:16PM 40.6956 -94.9514 279° West 388 447 27,400 -1,620 Descending Minneapolis Center
12:16PM 40.7142 -95.0425 285° West 404 465 26,400 -1,680 Descending Minneapolis Center
12:17PM 40.7211 -95.1353 276° West 406 467 25,500 -1,680 Descending Minneapolis Center
12:18PM 40.7236 -95.2800 271° West 407 468 23,900 -1,920 Descending Minneapolis Center
12:19PM 40.7361 -95.4250 277° West 403 464 21,900 -2,040 Descending Minneapolis Center
12:20PM 40.7575 -95.5878 280° West 384 442 19,400 -2,160 Descending Minneapolis Center
12:21PM 40.7611 -95.6972 273° West 366 421 17,500 -2,160 Descending Minneapolis Center
12:21PM 40.7669 -95.7269 285° West 351 404 17,000 -1,920 Descending Minneapolis Center
12:22PM 40.7733 -95.8247 275° West 353 406 15,600 -2,100 Descending Minneapolis Center
12:22PM 40.7758 -95.8553 276° West 343 395 14,900 -2,580 Descending Minneapolis Center
12:23PM 40.7853 -95.9672 276° West 339 390 12,600 -2,340 Descending Minneapolis Center
12:24PM 40.7939 -96.0728 276° West 342 394 10,700 -1,920 Descending Minneapolis Center
12:25PM 40.8019 -96.1786 276° West 304 350 9,000 -1,860 Descending Minneapolis Center
12:26PM 40.8028 -96.2717 271° West 276 318 7,000 -1,980 Descending Minneapolis Center
12:27PM 40.7908 -96.3575 260° West 254 292 5,000 -1,500 Descending Minneapolis Center
12:28PM 40.7781 -96.4436 259° West 244 281 4,000 -1,020 Descending Minneapolis Center
12:29PM 40.7650 -96.5250 258° West 214 246 3,000 -540 Descending Minneapolis Center
12:30PM 40.7469 -96.5875 249° West 193 222 2,900  Descending Minneapolis Center
12:31PM 40.7403 -96.6461 261° West 137 158 3,000 -120 Climbing Minneapolis Center
12:32PM 40.7653 -96.6792 315° West 124 143 2,700 -420 Descending Minneapolis Center
12:33PM 40.7939 -96.7064 324° Northwest 127 146 2,200 -540 Descending Minneapolis Center
12:34PM 40.8183 -96.7286 325° Northwest 110 127 1,700 -540 Descending Minneapolis Center